Spirit II — 9V3628 — position and weather

sailwx.info

Track history (hours):
 
Tides and Currents Weather Stations Pressure Air Temp Water Temp Dewpoint Dewpoint Depression Visibility Wind Speed Wind Dir Waves Ship Positions

Spirit II

Last reported at 2018-May-26 00:21 UTC. Time now 2018-May-27 11:43 UTC.
Position N 29°09' W 094°25'.

Length 252 m; draft 12 m.

Type: Tanker. MMSI: 566414000.

Date/timePositionNaut miles runAvg speedWind from/ knotsBaromVisibWave heightAir tempDewpointWater temp
2018-May-26 00:21N 29°09' W 094°25'412.2
2018-May-26 00:00N 29°12' W 094°29'612.0
2018-May-25 23:29N 29°16' W 094°34'511.3
2018-May-25 23:00N 29°19' W 094°39'611.2
2018-May-25 22:30N 29°21' W 094°45'5 9.2
2018-May-25 22:00N 29°24' W 094°49'5 9.4
2018-May-25 21:31N 29°28' W 094°51'5 9.8
2018-May-25 21:01N 29°32' W 094°54'5 9.1
2018-May-25 20:31N 29°36' W 094°57'4 7.9
2018-May-25 20:01N 29°40' W 094°58'3 6.6
2018-May-25 19:31N 29°42' W 095°01'3 5.8
2018-May-25 19:00N 29°44' W 095°03'3 4.3
2018-May-25 18:24N 29°44' W 095°07'1 0.0
2018-May-24 03:41N 29°44' W 095°07'0 0.9
2018-May-24 03:30N 29°44' W 095°07'2 3.7
2018-May-24 03:00N 29°45' W 095°06'3 5.3
2018-May-24 02:30N 29°44' W 095°03'3 5.1
2018-May-24 02:00N 29°42' W 095°01'4 7.1
2018-May-24 01:30N 29°39' W 094°58'5 9.1
2018-May-24 01:00N 29°35' W 094°56'510.7
2018-May-24 00:30N 29°31' W 094°53'511.0
2018-May-24 00:00N 29°26' W 094°50'510.8
2018-May-23 23:30N 29°21' W 094°47'510.8
2018-May-23 23:00N 29°20' W 094°41'510.3
2018-May-23 22:30N 29°18' W 094°36'2 4.3
2018-May-23 22:00N 29°16' W 094°35'2 1.3
2018-May-23 20:33N 29°15' W 094°36'0 0.1
2018-May-23 20:30N 29°15' W 094°36'0 0.0
2018-May-23 20:00N 29°15' W 094°36'0 0.0
2018-May-23 16:18N 29°15' W 094°36'0 0.0
2018-May-23 15:54N 29°15' W 094°36'0 0.0
2018-May-23 15:27N 29°15' W 094°36'0 0.0
2018-May-23 14:42N 29°15' W 094°36'0 0.1
2018-May-23 14:30N 29°15' W 094°36'0 0.0
2018-May-23 12:12N 29°15' W 094°36'0 0.0
2018-May-23 11:18N 29°15' W 094°36'0 0.0
2018-May-23 11:00N 29°15' W 094°36'0 0.0
2018-May-23 10:30N 29°15' W 094°36'0 0.0
2018-May-23 06:21N 29°15' W 094°36'0 0.0
2018-May-23 06:00N 29°15' W 094°36'0 0.0
2018-May-23 04:06N 29°15' W 094°36'0 0.0
2018-May-23 03:54N 29°15' W 094°36'0 0.1
2018-May-23 03:24N 29°15' W 094°36'0 0.1
2018-May-23 02:57N 29°15' W 094°36'0 0.1
2018-May-23 02:26N 29°15' W 094°36'0 0.0
2018-May-23 01:59N 29°15' W 094°36'0 0.0
2018-May-23 01:29N 29°15' W 094°36'0 0.0
2018-May-23 00:59N 29°15' W 094°36'0 0.0
2018-May-23 00:29N 29°15' W 094°36'0 0.0
2018-May-22 23:59N 29°15' W 094°36'0 0.1
2018-May-22 23:29N 29°15' W 094°36'0 0.0
2018-May-22 22:56N 29°15' W 094°36'0 0.0
2018-May-22 22:29N 29°15' W 094°36'0 0.1
2018-May-22 21:59N 29°15' W 094°36'0 0.0
2018-May-22 21:29N 29°15' W 094°36'0 0.1
2018-May-22 20:59N 29°15' W 094°36'0 0.0
2018-May-22 20:26N 29°15' W 094°36'0 0.0
2018-May-22 19:59N 29°15' W 094°36'0 0.0
2018-May-22 14:23N 29°15' W 094°36'0 0.1
2018-May-22 13:56N 29°15' W 094°36'0 0.3
2018-May-22 13:29N 29°15' W 094°36'0 0.2
2018-May-22 12:59N 29°15' W 094°36'0 0.1
2018-May-22 12:26N 29°15' W 094°36'0 0.0
2018-May-22 11:59N 29°15' W 094°36'0 0.1
2018-May-22 11:26N 29°15' W 094°36'0 0.2
2018-May-22 10:50N 29°15' W 094°36'0 0.1
2018-May-22 10:29N 29°15' W 094°36'0 0.1
2018-May-22 09:53N 29°15' W 094°36'0 0.0
2018-May-22 04:53N 29°15' W 094°36'0 0.3
2018-May-22 04:29N 29°15' W 094°36'0 0.1
2018-May-22 03:59N 29°15' W 094°36'6 2.3
2018-May-22 01:22N 29°20' W 094°40'512.9
2018-May-22 01:00N 29°21' W 094°45'510.0
2018-May-22 00:28N 29°22' W 094°51'2 0.2
2018-May-21 14:01N 29°23' W 094°54'0 0.0
2018-May-21 14:00N 29°23' W 094°54'0 0.0
2018-May-21 13:30N 29°23' W 094°54'0 0.0
2018-May-21 13:00N 29°23' W 094°54'0 0.4
2018-May-21 12:29N 29°23' W 094°53'2 3.9
2018-May-21 12:00N 29°22' W 094°51'510.1
2018-May-21 11:30N 29°21' W 094°46'610.6
2018-May-21 10:56N 29°19' W 094°39'7 6.3
2018-May-21 09:47N 29°13' W 094°35'0 0.6
2018-May-21 09:29N 29°13' W 094°35'0 0.0
2018-May-21 08:59N 29°13' W 094°35'0 0.1
2018-May-21 08:29N 29°13' W 094°35'0 0.1
2018-May-21 07:56N 29°13' W 094°35'0 0.0
2018-May-21 04:35N 29°13' W 094°35'0 0.1
2018-May-21 04:29N 29°13' W 094°35'0 0.1
2018-May-21 03:59N 29°13' W 094°35'0 0.2
2018-May-21 03:14N 29°13' W 094°35'0 0.2
2018-May-21 02:59N 29°13' W 094°35'0 0.0
2018-May-21 02:08N 29°13' W 094°35'0 0.0
2018-May-21 01:56N 29°13' W 094°35'0 0.0
2018-May-21 01:29N 29°13' W 094°35'0 0.0
2018-May-21 00:59N 29°13' W 094°35'0 0.0
2018-May-21 00:29N 29°13' W 094°35'0 0.0
2018-May-20 23:59N 29°13' W 094°35'0 0.0
2018-May-20 23:29N 29°13' W 094°35'0 0.0
2018-May-20 22:59N 29°13' W 094°35'0 0.0
2018-May-20 22:29N 29°13' W 094°35'0 0.0
2018-May-20 21:56N 29°13' W 094°35'0 0.0
2018-May-20 21:29N 29°13' W 094°35'0 0.0
2018-May-20 20:59N 29°13' W 094°35'0 0.0
2018-May-20 20:29N 29°13' W 094°35'0 0.0
2018-May-20 19:59N 29°13' W 094°35'0 0.0
2018-May-20 19:29N 29°13' W 094°35'0 0.0
2018-May-20 18:56N 29°13' W 094°35'0 0.0
2018-May-20 18:29N 29°13' W 094°35'0 0.0
2018-May-20 17:59N 29°13' W 094°35'0 0.0
2018-May-20 17:29N 29°13' W 094°35'0 0.0
2018-May-20 16:59N 29°13' W 094°35'0 0.1
2018-May-20 16:20N 29°13' W 094°35'0 0.0
2018-May-20 15:59N 29°13' W 094°35'0 0.0
2018-May-20 15:29N 29°13' W 094°35'0 0.0
2018-May-20 14:59N 29°13' W 094°35'0 0.0
2018-May-20 14:29N 29°13' W 094°35'0 0.0
2018-May-20 13:53N 29°13' W 094°35'0 0.0
2018-May-20 13:29N 29°13' W 094°35'0 0.0
2018-May-20 12:59N 29°13' W 094°35'0 0.0
2018-May-20 12:23N 29°13' W 094°35'0 0.0
2018-May-20 11:56N 29°13' W 094°35'0 0.0
2018-May-20 11:29N 29°13' W 094°35'0 0.0
2018-May-20 10:59N 29°13' W 094°35'0 0.0
2018-May-20 10:23N 29°13' W 094°35'0 0.0
2018-May-20 09:59N 29°13' W 094°35'0 0.0
2018-May-20 09:29N 29°13' W 094°35'0 0.0
2018-May-20 08:59N 29°13' W 094°35'0 0.0
2018-May-20 08:29N 29°13' W 094°35'0 0.0
2018-May-20 07:59N 29°13' W 094°35'0 0.0
2018-May-20 07:29N 29°13' W 094°35'0 0.0
2018-May-20 06:56N 29°13' W 094°35'0 0.0
2018-May-20 06:29N 29°13' W 094°35'0 0.0
2018-May-20 05:59N 29°13' W 094°35'0 0.0
2018-May-20 05:23N 29°13' W 094°35'0 0.0
2018-May-20 04:59N 29°13' W 094°35'0 0.0
2018-May-20 04:17N 29°13' W 094°35'0 0.0
2018-May-20 03:02N 29°13' W 094°35'0 0.0
2018-May-20 02:32N 29°13' W 094°35'0 0.0
2018-May-19 21:50N 29°13' W 094°35'0 0.0
2018-May-19 21:29N 29°13' W 094°35'0 0.0
2018-May-19 19:11N 29°13' W 094°35'0 0.1
2018-May-19 18:59N 29°13' W 094°35'0 0.0
2018-May-19 17:32N 29°13' W 094°35'0 0.0
2018-May-19 17:28N 29°13' W 094°35'0 0.0
2018-May-19 16:59N 29°13' W 094°35'0 0.0
2018-May-19 16:29N 29°13' W 094°35'0 0.0
2018-May-19 15:58N 29°13' W 094°35'0 0.0
2018-May-19 15:19N 29°13' W 094°35'0 0.0
2018-May-19 14:53N 29°13' W 094°35'0 0.0
2018-May-19 14:28N 29°13' W 094°35'0 0.0
2018-May-19 13:44N 29°13' W 094°35'0 0.0
2018-May-19 13:17N 29°13' W 094°35'0 0.0
2018-May-19 12:56N 29°13' W 094°35'0 0.1
2018-May-19 12:26N 29°13' W 094°35'0 0.0
2018-May-19 11:59N 29°13' W 094°35'0 0.0
2018-May-19 11:25N 29°13' W 094°35'0 0.1
2018-May-19 10:59N 29°13' W 094°35'0 0.0
2018-May-19 10:01N 29°13' W 094°35'0 0.0
2018-May-19 09:38N 29°13' W 094°35'0 0.0
2018-May-19 09:16N 29°13' W 094°35'0 0.0
2018-May-19 08:59N 29°13' W 094°35'0 0.0
2018-May-19 08:29N 29°13' W 094°35'0 0.0
2018-May-19 07:52N 29°13' W 094°35'0 0.0
2018-May-19 04:07N 29°13' W 094°35'0 0.1
2018-May-19 03:59N 29°13' W 094°35'0 0.0
2018-May-19 03:20N 29°13' W 094°35'0 0.0
2018-May-19 02:52N 29°13' W 094°35'0 0.0
2018-May-18 22:58N 29°13' W 094°35'0 0.0
2018-May-18 22:22N 29°13' W 094°35'0 0.0
2018-May-18 21:58N 29°13' W 094°35'0 0.0
2018-May-18 21:22N 29°13' W 094°35'0 0.0
2018-May-18 20:50N 29°13' W 094°35'0 0.0
2018-May-18 20:25N 29°13' W 094°35'0 0.0
2018-May-18 19:58N 29°13' W 094°35'0 0.0
2018-May-18 19:22N 29°13' W 094°35'0 0.0
2018-May-18 18:55N 29°13' W 094°35'0 0.0
2018-May-18 18:07N 29°13' W 094°35'0 0.0
2018-May-18 16:55N 29°13' W 094°35'0 0.0
2018-May-18 16:28N 29°13' W 094°35'0 0.0
2018-May-18 15:55N 29°13' W 094°35'0 0.0
2018-May-18 15:26N 29°13' W 094°35'0 0.0
2018-May-18 14:55N 29°13' W 094°35'0 0.0
2018-May-18 14:28N 29°13' W 094°35'0 0.1
2018-May-18 13:49N 29°13' W 094°35'0 0.6
2018-May-18 13:30N 29°13' W 094°35'2 3.2
2018-May-18 13:00N 29°13' W 094°33'4 7.3
2018-May-18 12:30N 29°13' W 094°29'5 9.6
2018-May-18 12:00N 29°11' W 094°24'5 9.7
2018-May-18 11:30N 29°08' W 094°20'611.3
2018-May-18 11:00N 29°05' W 094°14'612.2
2018-May-18 10:30N 29°01' W 094°09'612.4
2018-May-18 10:00N 28°57' W 094°03'612.5
2018-May-18 09:30N 28°54' W 093°57'612.3
2018-May-18 09:00N 28°50' W 093°51'612.0
2018-May-18 08:30N 28°47' W 093°46'611.9
2018-May-18 08:00N 28°43' W 093°40'612.0
2018-May-18 07:30N 28°40' W 093°35'612.1
2018-May-18 07:00N 28°37' W 093°29'612.4
2018-May-18 06:30N 28°33' W 093°24'713.0
2018-May-18 06:00N 28°29' W 093°18'612.9
2018-May-18 05:30N 28°25' W 093°12'612.8
2018-May-18 05:00N 28°21' W 093°06'713.0
2018-May-18 04:30N 28°17' W 092°60'612.9
2018-May-18 04:00N 28°14' W 092°54'712.6
2018-May-18 03:27N 28°08' W 092°49'612.7
2018-May-18 03:00N 28°04' W 092°45'612.7
2018-May-18 02:30N 27°59' W 092°41'612.5
2018-May-18 02:00N 27°54' W 092°37'612.2
2018-May-18 01:30N 27°49' W 092°32'3 6.4
2018-May-18 01:00N 27°47' W 092°30'1 1.1
2018-May-18 00:30N 27°46' W 092°30'0 0.1
2018-May-18 00:00N 27°46' W 092°30'0 0.1
2018-May-17 23:30N 27°46' W 092°30'0 0.6
2018-May-17 23:00N 27°46' W 092°30'1 2.3
2018-May-17 22:29N 27°45' W 092°29'4 6.9
2018-May-17 21:51N 27°42' W 092°25'410.0
2018-May-17 21:28N 27°39' W 092°22'6 9.9
2018-May-17 20:52N 27°35' W 092°18'410.1
2018-May-17 20:29N 27°32' W 092°15'1010.1
2018-May-17 19:31N 27°27' W 092°06'0 9.7
2018-May-17 19:30N 27°27' W 092°06'1610.1
2018-May-17 17:55N 27°17' W 091°51'910.2
2018-May-17 17:02N 27°11' W 091°43'010.3
2018-May-17 16:59N 27°11' W 091°43'810.0
2018-May-17 16:11N 27°06' W 091°36'210.0
2018-May-17 16:00N 27°05' W 091°34'17 9.5
2018-May-17 14:13N 26°55' W 091°19'  
Track history (hours):
 
Tides and Currents Weather Stations Pressure Air Temp Water Temp Dewpoint Dewpoint Depression Visibility Wind Speed Wind Dir Waves Ship Positions

Spirit II

Last reported at 2018-May-26 00:21 UTC. Time now 2018-May-27 11:43 UTC.
Position N 29°09' W 094°25'.

Length 252 m; draft 12 m.

Type: Tanker. MMSI: 566414000.

Date/timePositionNaut miles runAvg speedWind from/ knotsBaromVisibWave heightAir tempDewpointWater temp
2018-May-26 00:21N 29°09' W 094°25'412.2
2018-May-26 00:00N 29°12' W 094°29'612.0
2018-May-25 23:29N 29°16' W 094°34'511.3
2018-May-25 23:00N 29°19' W 094°39'611.2
2018-May-25 22:30N 29°21' W 094°45'5 9.2
2018-May-25 22:00N 29°24' W 094°49'5 9.4
2018-May-25 21:31N 29°28' W 094°51'5 9.8
2018-May-25 21:01N 29°32' W 094°54'5 9.1
2018-May-25 20:31N 29°36' W 094°57'4 7.9
2018-May-25 20:01N 29°40' W 094°58'3 6.6
2018-May-25 19:31N 29°42' W 095°01'3 5.8
2018-May-25 19:00N 29°44' W 095°03'3 4.3
2018-May-25 18:24N 29°44' W 095°07'1 0.0
2018-May-24 03:41N 29°44' W 095°07'0 0.9
2018-May-24 03:30N 29°44' W 095°07'2 3.7
2018-May-24 03:00N 29°45' W 095°06'3 5.3
2018-May-24 02:30N 29°44' W 095°03'3 5.1
2018-May-24 02:00N 29°42' W 095°01'4 7.1
2018-May-24 01:30N 29°39' W 094°58'5 9.1
2018-May-24 01:00N 29°35' W 094°56'510.7
2018-May-24 00:30N 29°31' W 094°53'511.0
2018-May-24 00:00N 29°26' W 094°50'510.8
2018-May-23 23:30N 29°21' W 094°47'510.8
2018-May-23 23:00N 29°20' W 094°41'510.3
2018-May-23 22:30N 29°18' W 094°36'2 4.3
2018-May-23 22:00N 29°16' W 094°35'2 1.3
2018-May-23 20:33N 29°15' W 094°36'0 0.1
2018-May-23 20:30N 29°15' W 094°36'0 0.0
2018-May-23 20:00N 29°15' W 094°36'0 0.0
2018-May-23 16:18N 29°15' W 094°36'0 0.0
2018-May-23 15:54N 29°15' W 094°36'0 0.0
2018-May-23 15:27N 29°15' W 094°36'0 0.0
2018-May-23 14:42N 29°15' W 094°36'0 0.1
2018-May-23 14:30N 29°15' W 094°36'0 0.0
2018-May-23 12:12N 29°15' W 094°36'0 0.0
2018-May-23 11:18N 29°15' W 094°36'0 0.0
2018-May-23 11:00N 29°15' W 094°36'0 0.0
2018-May-23 10:30N 29°15' W 094°36'0 0.0
2018-May-23 06:21N 29°15' W 094°36'0 0.0
2018-May-23 06:00N 29°15' W 094°36'0 0.0
2018-May-23 04:06N 29°15' W 094°36'0 0.0
2018-May-23 03:54N 29°15' W 094°36'0 0.1
2018-May-23 03:24N 29°15' W 094°36'0 0.1
2018-May-23 02:57N 29°15' W 094°36'0 0.1
2018-May-23 02:26N 29°15' W 094°36'0 0.0
2018-May-23 01:59N 29°15' W 094°36'0 0.0
2018-May-23 01:29N 29°15' W 094°36'0 0.0
2018-May-23 00:59N 29°15' W 094°36'0 0.0
2018-May-23 00:29N 29°15' W 094°36'0 0.0
2018-May-22 23:59N 29°15' W 094°36'0 0.1
2018-May-22 23:29N 29°15' W 094°36'0 0.0
2018-May-22 22:56N 29°15' W 094°36'0 0.0
2018-May-22 22:29N 29°15' W 094°36'0 0.1
2018-May-22 21:59N 29°15' W 094°36'0 0.0
2018-May-22 21:29N 29°15' W 094°36'0 0.1
2018-May-22 20:59N 29°15' W 094°36'0 0.0
2018-May-22 20:26N 29°15' W 094°36'0 0.0
2018-May-22 19:59N 29°15' W 094°36'0 0.0
2018-May-22 14:23N 29°15' W 094°36'0 0.1
2018-May-22 13:56N 29°15' W 094°36'0 0.3
2018-May-22 13:29N 29°15' W 094°36'0 0.2
2018-May-22 12:59N 29°15' W 094°36'0 0.1
2018-May-22 12:26N 29°15' W 094°36'0 0.0
2018-May-22 11:59N 29°15' W 094°36'0 0.1
2018-May-22 11:26N 29°15' W 094°36'0 0.2
2018-May-22 10:50N 29°15' W 094°36'0 0.1
2018-May-22 10:29N 29°15' W 094°36'0 0.1
2018-May-22 09:53N 29°15' W 094°36'0 0.0
2018-May-22 04:53N 29°15' W 094°36'0 0.3
2018-May-22 04:29N 29°15' W 094°36'0 0.1
2018-May-22 03:59N 29°15' W 094°36'6 2.3
2018-May-22 01:22N 29°20' W 094°40'512.9
2018-May-22 01:00N 29°21' W 094°45'510.0
2018-May-22 00:28N 29°22' W 094°51'2 0.2
2018-May-21 14:01N 29°23' W 094°54'0 0.0
2018-May-21 14:00N 29°23' W 094°54'0 0.0
2018-May-21 13:30N 29°23' W 094°54'0 0.0
2018-May-21 13:00N 29°23' W 094°54'0 0.4
2018-May-21 12:29N 29°23' W 094°53'2 3.9
2018-May-21 12:00N 29°22' W 094°51'510.1
2018-May-21 11:30N 29°21' W 094°46'610.6
2018-May-21 10:56N 29°19' W 094°39'7 6.3
2018-May-21 09:47N 29°13' W 094°35'0 0.6
2018-May-21 09:29N 29°13' W 094°35'0 0.0
2018-May-21 08:59N 29°13' W 094°35'0 0.1
2018-May-21 08:29N 29°13' W 094°35'0 0.1
2018-May-21 07:56N 29°13' W 094°35'0 0.0
2018-May-21 04:35N 29°13' W 094°35'0 0.1
2018-May-21 04:29N 29°13' W 094°35'0 0.1
2018-May-21 03:59N 29°13' W 094°35'0 0.2
2018-May-21 03:14N 29°13' W 094°35'0 0.2
2018-May-21 02:59N 29°13' W 094°35'0 0.0
2018-May-21 02:08N 29°13' W 094°35'0 0.0
2018-May-21 01:56N 29°13' W 094°35'0 0.0
2018-May-21 01:29N 29°13' W 094°35'0 0.0
2018-May-21 00:59N 29°13' W 094°35'0 0.0
2018-May-21 00:29N 29°13' W 094°35'0 0.0
2018-May-20 23:59N 29°13' W 094°35'0 0.0
2018-May-20 23:29N 29°13' W 094°35'0 0.0
2018-May-20 22:59N 29°13' W 094°35'0 0.0
2018-May-20 22:29N 29°13' W 094°35'0 0.0
2018-May-20 21:56N 29°13' W 094°35'0 0.0
2018-May-20 21:29N 29°13' W 094°35'0 0.0
2018-May-20 20:59N 29°13' W 094°35'0 0.0
2018-May-20 20:29N 29°13' W 094°35'0 0.0
2018-May-20 19:59N 29°13' W 094°35'0 0.0
2018-May-20 19:29N 29°13' W 094°35'0 0.0
2018-May-20 18:56N 29°13' W 094°35'0 0.0
2018-May-20 18:29N 29°13' W 094°35'0 0.0
2018-May-20 17:59N 29°13' W 094°35'0 0.0
2018-May-20 17:29N 29°13' W 094°35'0 0.0
2018-May-20 16:59N 29°13' W 094°35'0 0.1
2018-May-20 16:20N 29°13' W 094°35'0 0.0
2018-May-20 15:59N 29°13' W 094°35'0 0.0
2018-May-20 15:29N 29°13' W 094°35'0 0.0
2018-May-20 14:59N 29°13' W 094°35'0 0.0
2018-May-20 14:29N 29°13' W 094°35'0 0.0
2018-May-20 13:53N 29°13' W 094°35'0 0.0
2018-May-20 13:29N 29°13' W 094°35'0 0.0
2018-May-20 12:59N 29°13' W 094°35'0 0.0
2018-May-20 12:23N 29°13' W 094°35'0 0.0
2018-May-20 11:56N 29°13' W 094°35'0 0.0
2018-May-20 11:29N 29°13' W 094°35'0 0.0
2018-May-20 10:59N 29°13' W 094°35'0 0.0
2018-May-20 10:23N 29°13' W 094°35'0 0.0
2018-May-20 09:59N 29°13' W 094°35'0 0.0
2018-May-20 09:29N 29°13' W 094°35'0 0.0
2018-May-20 08:59N 29°13' W 094°35'0 0.0
2018-May-20 08:29N 29°13' W 094°35'0 0.0
2018-May-20 07:59N 29°13' W 094°35'0 0.0
2018-May-20 07:29N 29°13' W 094°35'0 0.0
2018-May-20 06:56N 29°13' W 094°35'0 0.0
2018-May-20 06:29N 29°13' W 094°35'0 0.0
2018-May-20 05:59N 29°13' W 094°35'0 0.0
2018-May-20 05:23N 29°13' W 094°35'0 0.0
2018-May-20 04:59N 29°13' W 094°35'0 0.0
2018-May-20 04:17N 29°13' W 094°35'0 0.0
2018-May-20 03:02N 29°13' W 094°35'0 0.0
2018-May-20 02:32N 29°13' W 094°35'0 0.0
2018-May-19 21:50N 29°13' W 094°35'0 0.0
2018-May-19 21:29N 29°13' W 094°35'0 0.0
2018-May-19 19:11N 29°13' W 094°35'0 0.1
2018-May-19 18:59N 29°13' W 094°35'0 0.0
2018-May-19 17:32N 29°13' W 094°35'0 0.0
2018-May-19 17:28N 29°13' W 094°35'0 0.0
2018-May-19 16:59N 29°13' W 094°35'0 0.0
2018-May-19 16:29N 29°13' W 094°35'0 0.0
2018-May-19 15:58N 29°13' W 094°35'0 0.0
2018-May-19 15:19N 29°13' W 094°35'0 0.0
2018-May-19 14:53N 29°13' W 094°35'0 0.0
2018-May-19 14:28N 29°13' W 094°35'0 0.0
2018-May-19 13:44N 29°13' W 094°35'0 0.0
2018-May-19 13:17N 29°13' W 094°35'0 0.0
2018-May-19 12:56N 29°13' W 094°35'0 0.1
2018-May-19 12:26N 29°13' W 094°35'0 0.0
2018-May-19 11:59N 29°13' W 094°35'0 0.0
2018-May-19 11:25N 29°13' W 094°35'0 0.1
2018-May-19 10:59N 29°13' W 094°35'0 0.0
2018-May-19 10:01N 29°13' W 094°35'0 0.0
2018-May-19 09:38N 29°13' W 094°35'0 0.0
2018-May-19 09:16N 29°13' W 094°35'0 0.0
2018-May-19 08:59N 29°13' W 094°35'0 0.0
2018-May-19 08:29N 29°13' W 094°35'0 0.0
2018-May-19 07:52N 29°13' W 094°35'0 0.0
2018-May-19 04:07N 29°13' W 094°35'0 0.1
2018-May-19 03:59N 29°13' W 094°35'0 0.0
2018-May-19 03:20N 29°13' W 094°35'0 0.0
2018-May-19 02:52N 29°13' W 094°35'0 0.0
2018-May-18 22:58N 29°13' W 094°35'0 0.0
2018-May-18 22:22N 29°13' W 094°35'0 0.0
2018-May-18 21:58N 29°13' W 094°35'0 0.0
2018-May-18 21:22N 29°13' W 094°35'0 0.0
2018-May-18 20:50N 29°13' W 094°35'0 0.0
2018-May-18 20:25N 29°13' W 094°35'0 0.0
2018-May-18 19:58N 29°13' W 094°35'0 0.0
2018-May-18 19:22N 29°13' W 094°35'0 0.0
2018-May-18 18:55N 29°13' W 094°35'0 0.0
2018-May-18 18:07N 29°13' W 094°35'0 0.0
2018-May-18 16:55N 29°13' W 094°35'0 0.0
2018-May-18 16:28N 29°13' W 094°35'0 0.0
2018-May-18 15:55N 29°13' W 094°35'0 0.0
2018-May-18 15:26N 29°13' W 094°35'0 0.0
2018-May-18 14:55N 29°13' W 094°35'0 0.0
2018-May-18 14:28N 29°13' W 094°35'0 0.1
2018-May-18 13:49N 29°13' W 094°35'0 0.6
2018-May-18 13:30N 29°13' W 094°35'2 3.2
2018-May-18 13:00N 29°13' W 094°33'4 7.3
2018-May-18 12:30N 29°13' W 094°29'5 9.6
2018-May-18 12:00N 29°11' W 094°24'5 9.7
2018-May-18 11:30N 29°08' W 094°20'611.3
2018-May-18 11:00N 29°05' W 094°14'612.2
2018-May-18 10:30N 29°01' W 094°09'612.4
2018-May-18 10:00N 28°57' W 094°03'612.5
2018-May-18 09:30N 28°54' W 093°57'612.3
2018-May-18 09:00N 28°50' W 093°51'612.0
2018-May-18 08:30N 28°47' W 093°46'611.9
2018-May-18 08:00N 28°43' W 093°40'612.0
2018-May-18 07:30N 28°40' W 093°35'612.1
2018-May-18 07:00N 28°37' W 093°29'612.4
2018-May-18 06:30N 28°33' W 093°24'713.0
2018-May-18 06:00N 28°29' W 093°18'612.9
2018-May-18 05:30N 28°25' W 093°12'612.8
2018-May-18 05:00N 28°21' W 093°06'713.0
2018-May-18 04:30N 28°17' W 092°60'612.9
2018-May-18 04:00N 28°14' W 092°54'712.6
2018-May-18 03:27N 28°08' W 092°49'612.7
2018-May-18 03:00N 28°04' W 092°45'612.7
2018-May-18 02:30N 27°59' W 092°41'612.5
2018-May-18 02:00N 27°54' W 092°37'612.2
2018-May-18 01:30N 27°49' W 092°32'3 6.4
2018-May-18 01:00N 27°47' W 092°30'1 1.1
2018-May-18 00:30N 27°46' W 092°30'0 0.1
2018-May-18 00:00N 27°46' W 092°30'0 0.1
2018-May-17 23:30N 27°46' W 092°30'0 0.6
2018-May-17 23:00N 27°46' W 092°30'1 2.3
2018-May-17 22:29N 27°45' W 092°29'4 6.9
2018-May-17 21:51N 27°42' W 092°25'410.0
2018-May-17 21:28N 27°39' W 092°22'6 9.9
2018-May-17 20:52N 27°35' W 092°18'410.1
2018-May-17 20:29N 27°32' W 092°15'1010.1
2018-May-17 19:31N 27°27' W 092°06'0 9.7
2018-May-17 19:30N 27°27' W 092°06'1610.1
2018-May-17 17:55N 27°17' W 091°51'910.2
2018-May-17 17:02N 27°11' W 091°43'010.3
2018-May-17 16:59N 27°11' W 091°43'810.0
2018-May-17 16:11N 27°06' W 091°36'210.0
2018-May-17 16:00N 27°05' W 091°34'17 9.5
2018-May-17 14:13N 26°55' W 091°19'  

Dump ship's entire track history